Enders, NE (69027)

9:35 AM MST on December 26, 2014 (GMT -0700)
Imperial Municipal | Change Station
CLOSE
Current Station
Airport
Location: Imperial,
Elevation: 3274 ft
Nearby Weather Stations
Active Advisory: Winter Weather Advisory

Elev 3274 ft 40.51 °N, 101.62 °W | Updated 10 minutes ago

Snow
Snow
22 °F
Feels Like 9 °F
N
15
Wind Variable Wind from NNE

Today
High -- | Low -- °F
--% Chance of Precip.
Yesterday
High -- | Low -- °F
Precip. -- in
7:08 AM 4:25 PM
Waxing Crescent, 27% visible
Pressure 30.03 in
Visibility 0.8 miles
Clouds Few 800 ft
Few 1200 ft
Overcast 1700 ft
Windchill 9 °F
Dew Point 18 °F
Humidity 85%
Rainfall 0.00 in
Snow Depth Not available.
UV 0 out of 12
Pollen .10 out of 12
Air Quality Not available.
Flu Activity Not available.
SPECI KIML 261625Z AUTO 02013KT 3/4SM -SN BR FEW008 FEW012 OVC017 M06/M08 A3003 RMK AO2 PRESRR P0000 T10561078

More Conditions Fewer Conditions

Pressure 30.03 in
Visibility 0.8 miles
Clouds Few 800 ft
Few 1200 ft
Overcast 1700 ft
Windchill 9 °F
Dew Point 18 °F
Humidity 85%
Rainfall 0.00 in
Snow Depth Not available.
UV 0 out of 12
Pollen .10 out of 12
Air Quality Not available.
Flu Activity Not available.
SPECI KIML 261625Z AUTO 02013KT 3/4SM -SN BR FEW008 FEW012 OVC017 M06/M08 A3003 RMK AO2 PRESRR P0000 T10561078

More Conditions Fewer Conditions

Nowcast | as of 8:57 am CST on December 26, 2014

Snow will continue to increase in coverage this morning across southwest Nebraska. Snowfall rates will generally be around one quarter to one half inch per hour within the heavier bands of snow. Visibility could be as low as one half of a mile within the heavier snow bands as well.

×

10-Day Weather Forecast

Almanac

Astronomy

Dec. 26, 2014 Rise Set
Actual Time
Civil Twilight
Nautical Twilight
Astronomical Twilight
Moon
Length of Visible Light
Length of Day
Tomorrow will be .
, % of the Moon is Illuminated

Today's Extremes

State Highs State Lows

Community

WunderPhotos

Upload Photos

1,780,630 photos uploaded!

WunderBlogs® & News

Nearby

Air Quality

  Air Quality AQ Index Pollutant
Not available.

Snow Depth

Station Depth Elevation

Earthquake Activity

City Distance Mag. Time & Date
Minimum magnitude displayed is 2.5.

Coastal Water Temperatures

Place Temperature

Nearby Weather Stations